Time;durP1;ratioP1;P1;durP2;ratioP2;P2;SDS_P1;SDS_P2;PMS_P1;PMS_P2;Temp;Humidity;BMP_temperature;BMP_pressure;BME280_temperature;BME280_humidity;BME280_pressure;Samples;Min_cycle;Max_cycle;Signal;HPM_P1;HPM_P2
2024/03/15 00:01:01;;;;;;;0.10;0.10;;;;;;;-145.06;100.00;52570.19;10448433;28;20087;-70
2024/03/15 00:06:01;;;;;;;0.00;0.00;;;;;;;-145.06;100.00;52560.06;10448127;28;20445;-70
2024/03/15 00:11:02;;;;;;;0.10;0.10;;;;;;;-145.06;100.00;52560.06;10448212;28;20255;-70
2024/03/15 00:16:03;;;;;;;0.10;0.10;;;;;;;-145.06;100.00;52568.16;10448071;28;20047;-70
2024/03/15 00:21:04;;;;;;;0.10;0.10;;;;;;;-145.06;100.00;52535.75;10447948;28;20506;-70
2024/03/15 00:26:04;;;;;;;0.10;0.10;;;;;;;-145.06;100.00;52539.81;10447951;28;20029;-70
2024/03/15 00:31:05;;;;;;;0.00;0.00;;;;;;;-145.06;100.00;52543.84;10447564;28;20055;-69
2024/03/15 00:36:05;;;;;;;0.05;0.05;;;;;;;-145.06;100.00;52547.91;10446121;28;20279;-70
2024/03/15 00:41:06;;;;;;;0.00;0.00;;;;;;;-145.06;100.00;52558.03;10447352;28;20103;-70
2024/03/15 00:46:06;;;;;;;0.10;0.10;;;;;;;-145.06;100.00;52515.53;10447165;28;20017;-70
2024/03/15 00:51:08;;;;;;;0.00;0.00;;;;;;;-145.06;100.00;52507.41;10447110;28;20017;-71
2024/03/15 00:56:11;;;;;;;0.00;0.00;;;;;;;-145.06;100.00;52523.63;10450739;28;20519;-70
2024/03/15 01:01:12;;;;;;;0.10;0.10;;;;;;;-145.06;100.00;52517.53;10454526;28;20020;-70
2024/03/15 01:06:15;;;;;;;0.00;0.00;;;;;;;-145.06;100.00;52507.41;10454008;28;20028;-71
2024/03/15 01:11:15;;;;;;;0.10;0.10;;;;;;;-145.06;100.00;52515.53;10454100;28;20538;-71
2024/03/15 01:16:15;;;;;;;0.10;0.10;;;;;;;-145.06;100.00;52505.41;10454009;28;20029;-70
2024/03/15 01:21:16;;;;;;;0.10;0.10;;;;;;;-145.06;100.00;52517.53;10452457;28;20036;-70
2024/03/15 01:26:16;;;;;;;0.10;0.10;;;;;;;-145.06;100.00;52499.31;10453752;28;20033;-69
2024/03/15 01:31:17;;;;;;;0.10;0.10;;;;;;;-145.06;100.00;52527.66;10453839;28;20021;-70
2024/03/15 01:36:18;;;;;;;0.10;0.10;;;;;;;-145.06;100.00;52495.28;10452967;28;20502;-70
2024/03/15 01:41:18;;;;;;;0.10;0.10;;;;;;;-145.06;100.00;52499.31;10453279;28;20028;-70
2024/03/15 01:46:19;;;;;;;0.00;0.00;;;;;;;-145.06;100.00;52525.63;10452622;28;20086;-70
2024/03/15 01:51:19;;;;;;;0.10;0.10;;;;;;;-145.06;100.00;52513.50;10452738;28;20441;-70
2024/03/15 01:56:21;;;;;;;0.10;0.10;;;;;;;-145.06;100.00;52529.69;10452166;28;20398;-70
2024/03/15 02:01:21;;;;;;;0.10;0.10;;;;;;;-145.06;100.00;52556.00;10450743;28;20055;-70
2024/03/15 02:06:21;;;;;;;0.00;0.00;;;;;;;-145.06;100.00;52525.63;10451411;28;20085;-69
2024/03/15 02:11:22;;;;;;;0.10;0.10;;;;;;;-145.06;100.00;52543.84;10451758;28;20440;-70
2024/03/15 02:16:22;;;;;;;0.10;0.10;;;;;;;-145.06;100.00;52503.38;10451499;28;20021;-70
2024/03/15 02:21:22;;;;;;;0.00;0.00;;;;;;;-145.06;100.00;52489.19;10451364;28;20017;-70
2024/03/15 02:26:23;;;;;;;0.07;0.07;;;;;;;-145.06;100.00;52503.38;10450508;28;20053;-70
2024/03/15 02:31:24;;;;;;;0.10;0.10;;;;;;;-145.06;100.00;52513.50;10451094;28;20266;-70
2024/03/15 02:36:25;;;;;;;0.03;0.03;;;;;;;-145.06;100.00;52513.50;10450340;28;20267;-69
2024/03/15 02:41:26;;;;;;;0.10;0.10;;;;;;;-145.06;100.00;52553.97;10450769;28;20074;-70
2024/03/15 02:46:26;;;;;;;0.00;0.00;;;;;;;-145.06;100.00;52507.41;10450905;28;20382;-70
2024/03/15 02:51:26;;;;;;;0.03;0.03;;;;;;;-145.06;100.00;52499.31;10450351;28;20433;-69
2024/03/15 02:56:27;;;;;;;0.10;0.10;;;;;;;-145.06;100.00;52503.38;10450609;28;20021;-70
2024/03/15 03:01:27;;;;;;;0.00;0.00;;;;;;;-145.06;100.00;52485.16;10450054;28;20037;-70
2024/03/15 03:06:27;;;;;;;0.00;0.00;;;;;;;-145.06;100.00;52495.28;10450198;28;20020;-70
2024/03/15 03:11:28;;;;;;;0.10;0.10;;;;;;;-145.06;100.00;52493.25;10449957;28;20052;-70
2024/03/15 03:16:28;;;;;;;0.10;0.10;;;;;;;-145.06;100.00;52485.16;10449150;28;20275;-70
2024/03/15 03:21:28;;;;;;;0.10;0.10;;;;;;;-145.06;100.00;52491.22;10449559;28;20031;-70
2024/03/15 03:26:29;;;;;;;0.10;0.10;;;;;;;-145.06;100.00;52489.19;10448961;28;20497;-70
2024/03/15 03:31:29;;;;;;;0.03;0.03;;;;;;;-145.06;100.00;52458.84;10449597;28;20049;-70
2024/03/15 03:36:29;;;;;;;0.10;0.10;;;;;;;-145.06;100.00;52470.97;10449285;28;20021;-70
2024/03/15 03:41:30;;;;;;;0.10;0.10;;;;;;;-145.06;100.00;52456.81;10449908;28;20014;-70
2024/03/15 03:46:31;;;;;;;0.10;0.10;;;;;;;-145.06;100.00;52450.75;10449141;28;20025;-71
2024/03/15 03:51:31;;;;;;;0.10;0.10;;;;;;;-145.06;100.00;52456.81;10448887;28;20490;-71
2024/03/15 03:56:31;;;;;;;0.10;0.10;;;;;;;-145.06;100.00;52438.59;10448831;28;20063;-71
2024/03/15 04:01:33;;;;;;;0.00;0.00;;;;;;;-145.06;100.00;52466.94;10448509;28;20486;-70
2024/03/15 04:06:34;;;;;;;0.10;0.10;;;;;;;-145.06;100.00;52446.69;10448736;28;20368;-71
2024/03/15 04:11:35;;;;;;;0.00;0.00;;;;;;;-145.06;100.00;52440.63;10448578;28;20067;-70
2024/03/15 04:16:35;;;;;;;0.10;0.10;;;;;;;-145.06;100.00;52430.50;10448083;28;20074;-71
2024/03/15 04:21:36;;;;;;;0.10;0.10;;;;;;;-145.06;100.00;52442.63;10448512;28;20017;-71
2024/03/15 04:26:37;;;;;;;0.10;0.10;;;;;;;-145.06;100.00;52452.75;10448213;28;20099;-70
2024/03/15 04:31:40;;;;;;;0.10;0.10;;;;;;;-145.06;100.00;52464.91;10449737;28;20402;-71
2024/03/15 04:36:41;;;;;;;0.10;0.10;;;;;;;-145.06;100.00;52458.84;10456180;28;20227;-70
2024/03/15 04:41:42;;;;;;;0.10;0.10;;;;;;;-145.06;100.00;52462.88;10453773;28;20025;-71
2024/03/15 04:46:43;;;;;;;0.10;0.10;;;;;;;-145.06;100.00;52483.13;10454882;28;20073;-70
2024/03/15 04:51:43;;;;;;;0.10;0.10;;;;;;;-145.06;100.00;52446.69;10454643;28;20017;-70
2024/03/15 04:56:46;;;;;;;0.00;0.00;;;;;;;-145.06;100.00;52464.91;10454500;28;20092;-71
2024/03/15 05:01:46;;;;;;;0.10;0.10;;;;;;;-145.06;100.00;52430.50;10426741;28;20037;-71
2024/03/15 05:06:46;;;;;;;0.10;0.10;;;;;;;-145.06;100.00;52420.38;10451576;28;20425;-70
2024/03/15 05:11:47;;;;;;;0.10;0.10;;;;;;;-145.06;100.00;52450.75;10451586;28;20013;-71
2024/03/15 05:16:54;;;;;;;0.00;0.00;;;;;;;-145.06;100.00;52406.19;10452430;28;20082;-71
2024/03/15 05:21:55;;;;;;;0.10;0.10;;;;;;;-145.06;100.00;52390.00;10449593;28;20120;-70
2024/03/15 05:26:55;;;;;;;0.10;0.10;;;;;;;-145.06;100.00;52404.19;10452612;28;20107;-71
2024/03/15 05:31:55;;;;;;;0.00;0.00;;;;;;;-145.06;100.00;52412.28;10450894;28;20017;-71
2024/03/15 05:36:56;;;;;;;0.00;0.00;;;;;;;-145.06;100.00;52402.16;10449751;28;20277;-71
2024/03/15 05:41:56;;;;;;;0.10;0.10;;;;;;;-145.06;100.00;52396.06;10451303;28;20356;-71
2024/03/15 05:46:58;;;;;;;0.08;0.08;;;;;;;-145.06;100.00;52377.84;10451625;28;20025;-70
2024/03/15 05:51:59;;;;;;;0.10;0.10;;;;;;;-145.06;100.00;52341.41;10452096;28;20028;-72
2024/03/15 05:56:59;;;;;;;0.10;0.10;;;;;;;-145.06;100.00;52290.81;10450255;28;20033;-71
2024/03/15 06:01:59;;;;;;;0.10;0.10;;;;;;;-145.06;100.00;52234.13;10449750;28;20017;-71
2024/03/15 06:07:00;;;;;;;0.03;0.03;;;;;;;-145.06;100.00;52264.50;10449944;28;20025;-71
2024/03/15 06:12:00;;;;;;;0.00;0.00;;;;;;;-145.06;100.00;52309.03;10450365;28;20021;-71
2024/03/15 06:17:00;;;;;;;0.10;0.10;;;;;;;-145.06;100.00;52321.19;10448295;28;20093;-71
2024/03/15 06:22:01;;;;;;;0.10;0.10;;;;;;;-145.06;100.00;52313.06;10450085;28;20427;-70
2024/03/15 06:27:02;;;;;;;0.10;0.10;;;;;;;-145.06;100.00;52292.84;10449667;28;20020;-71
2024/03/15 06:32:02;;;;;;;0.10;0.10;;;;;;;-145.06;100.00;52288.78;10449638;28;20181;-71
2024/03/15 06:37:06;;;;;;;0.10;0.10;;;;;;;-145.06;100.00;52290.81;10447116;28;20111;-71
2024/03/15 06:42:34;;;;;;;0.10;0.10;;;;;;;-145.06;100.00;52274.63;10450349;28;21183;-71
2024/03/15 06:47:38;;;;;;;0.00;0.00;;;;;;;-145.06;100.00;52230.09;10449376;28;20069;-74
2024/03/15 06:52:39;;;;;;;0.00;0.00;;;;;;;-145.06;100.00;52191.63;10450182;28;20029;-71
2024/03/15 06:57:40;;;;;;;0.10;0.10;;;;;;;-145.06;100.00;52191.63;10449023;28;20029;-71
2024/03/15 07:02:42;;;;;;;0.00;0.00;;;;;;;-145.06;100.00;52147.09;10448418;28;20398;-71
2024/03/15 07:07:43;;;;;;;0.10;0.10;;;;;;;-145.06;100.00;52130.88;10447832;28;20453;-71
2024/03/15 07:12:46;;;;;;;0.10;0.10;;;;;;;-145.06;100.00;52098.50;10445483;28;20017;-71
2024/03/15 07:17:47;;;;;;;0.10;0.10;;;;;;;-145.06;100.00;52102.56;10448491;28;20029;-71
2024/03/15 07:22:48;;;;;;;0.10;0.10;;;;;;;-145.06;100.00;52074.22;10446897;28;20021;-71
2024/03/15 07:27:51;;;;;;;0.10;0.10;;;;;;;-145.06;100.00;52086.34;10447128;28;20045;-71
2024/03/15 07:32:51;;;;;;;0.10;0.10;;;;;;;-145.06;100.00;52043.84;10448335;28;20024;-71
2024/03/15 07:37:53;;;;;;;0.10;0.10;;;;;;;-145.06;100.00;52049.91;10446470;28;20013;-71
2024/03/15 07:42:55;;;;;;;0.10;0.10;;;;;;;-145.06;100.00;52047.91;10447030;28;20417;-72
2024/03/15 07:47:56;;;;;;;0.10;0.10;;;;;;;-145.06;100.00;51991.22;10447589;28;20027;-72
2024/03/15 07:52:57;;;;;;;0.10;0.10;;;;;;;-145.06;100.00;51979.06;10447710;28;20415;-72
2024/03/15 07:57:57;;;;;;;0.10;0.10;;;;;;;-145.06;100.00;51960.84;10447971;28;20017;-72
2024/03/15 08:02:58;;;;;;;0.10;0.10;;;;;;;-145.06;100.00;51904.19;10447814;28;20021;-71
2024/03/15 08:07:58;;;;;;;0.03;0.03;;;;;;;-145.06;100.00;51811.06;10456012;28;20028;-71
2024/03/15 08:12:58;;;;;;;0.10;0.10;;;;;;;-145.06;100.00;51758.44;10454313;28;20036;-71
2024/03/15 08:18:00;;;;;;;0.10;0.10;;;;;;;-145.06;100.00;51843.47;10453438;28;20041;-71
2024/03/15 08:23:00;;;;;;;0.10;0.10;;;;;;;-145.06;100.00;51892.03;10453181;28;20025;-72
2024/03/15 08:28:00;;;;;;;0.00;0.00;;;;;;;-145.06;100.00;51975.03;10454373;28;20028;-72
2024/03/15 08:33:02;;;;;;;0.00;0.00;;;;;;;-145.06;100.00;51975.03;10455026;28;20500;-71
2024/03/15 08:38:02;;;;;;;0.10;0.10;;;;;;;-145.06;100.00;51987.16;10446738;28;20017;-72
2024/03/15 08:43:03;;;;;;;0.10;0.10;;;;;;;-145.06;100.00;52023.59;10454454;28;20051;-71
2024/03/15 08:48:04;;;;;;;0.10;0.10;;;;;;;-145.06;100.00;51995.28;10454086;28;20035;-71
2024/03/15 08:53:07;;;;;;;0.00;0.00;;;;;;;-145.06;100.00;51987.16;10454608;28;20506;-74
2024/03/15 08:58:09;;;;;;;0.10;0.10;;;;;;;-145.06;100.00;51977.06;10453336;28;20344;-71
2024/03/15 09:03:09;;;;;;;0.10;0.10;;;;;;;-145.06;100.00;51999.31;10461027;28;20021;-70
2024/03/15 09:08:11;;;;;;;0.00;0.00;;;;;;;-145.06;100.00;52023.59;10463063;28;20178;-70
2024/03/15 09:13:11;;;;;;;0.10;0.10;;;;;;;-145.06;100.00;52003.38;10454398;28;20021;-70
2024/03/15 09:18:11;;;;;;;0.10;0.10;;;;;;;-145.06;100.00;52013.50;10453084;28;20036;-70
2024/03/15 09:23:12;;;;;;;0.03;0.03;;;;;;;-145.06;100.00;51997.28;10452962;28;20025;-69
2024/03/15 09:28:12;;;;;;;0.10;0.10;;;;;;;-145.06;100.00;51989.19;10453012;28;20260;-69
2024/03/15 09:33:13;;;;;;;0.10;0.10;;;;;;;-145.06;100.00;51956.81;10451476;28;20025;-68
2024/03/15 09:38:14;;;;;;;0.10;0.10;;;;;;;-145.06;100.00;51918.34;10448653;28;20063;-68
2024/03/15 09:43:15;;;;;;;0.00;0.00;;;;;;;-145.06;100.00;51853.56;10449137;28;20311;-68
2024/03/15 09:48:16;;;;;;;0.10;0.10;;;;;;;-145.06;100.00;51788.81;10449911;28;20102;-69
2024/03/15 09:53:17;;;;;;;0.03;0.03;;;;;;;-145.06;100.00;51786.78;10452039;28;20024;-69
2024/03/15 09:58:17;;;;;;;0.00;0.00;;;;;;;-145.06;100.00;51734.16;10450616;28;20025;-69
2024/03/15 10:03:18;;;;;;;0.10;0.10;;;;;;;-145.06;100.00;51778.69;10450586;28;20037;-69
2024/03/15 10:08:18;;;;;;;0.10;0.10;;;;;;;-145.06;100.00;51734.16;10451699;28;20024;-68
2024/03/15 10:13:20;;;;;;;0.10;0.10;;;;;;;-145.06;100.00;51738.22;10450568;28;20021;-68
2024/03/15 10:18:21;;;;;;;0.10;0.10;;;;;;;-145.06;100.00;51736.19;10449091;28;20057;-68
2024/03/15 10:23:22;;;;;;;0.10;0.10;;;;;;;-145.06;100.00;51754.41;10450235;28;20461;-68
2024/03/15 10:28:22;;;;;;;0.10;0.10;;;;;;;-145.06;100.00;51705.81;10449974;28;20131;-68
2024/03/15 10:33:23;;;;;;;0.00;0.00;;;;;;;-145.06;100.00;51632.97;10451048;28;20020;-69
2024/03/15 10:38:23;;;;;;;0.10;0.10;;;;;;;-145.06;100.00;51624.84;10450240;28;20013;-69
2024/03/15 10:43:24;;;;;;;0.10;0.10;;;;;;;-145.06;100.00;51675.47;10449307;28;20021;-69
2024/03/15 10:48:26;;;;;;;0.00;0.00;;;;;;;-145.06;100.00;51645.09;10447573;28;20389;-69
2024/03/15 10:53:27;;;;;;;0.10;0.10;;;;;;;-145.06;100.00;51649.16;10447704;28;20028;-69
2024/03/15 10:58:29;;;;;;;0.10;0.10;;;;;;;-145.06;100.00;51657.25;10448038;28;20099;-69
2024/03/15 11:03:31;;;;;;;0.00;0.00;;;;;;;-145.06;100.00;51689.63;10448385;28;20028;-69
2024/03/15 11:08:35;;;;;;;0.10;0.10;;;;;;;-145.06;100.00;51705.81;10448445;28;20025;-68
2024/03/15 11:13:36;;;;;;;0.00;0.00;;;;;;;-145.06;100.00;51657.25;10447373;28;20013;-69
2024/03/15 11:18:37;;;;;;;0.10;0.10;;;;;;;-145.06;100.00;51643.06;10449473;28;20031;-73
2024/03/15 11:23:37;;;;;;;0.10;0.10;;;;;;;-145.06;100.00;51616.75;10446477;28;20021;-69
2024/03/15 11:28:38;;;;;;;0.00;0.00;;;;;;;-145.06;100.00;51584.38;10447890;28;20057;-68
2024/03/15 11:33:38;;;;;;;0.10;0.10;;;;;;;-145.06;100.00;51535.81;10448305;28;20523;-69
2024/03/15 11:38:45;;;;;;;0.10;0.10;;;;;;;-145.06;100.00;51539.84;10447027;28;20020;-72
2024/03/15 11:43:45;;;;;;;0.05;0.05;;;;;;;-145.06;100.00;51543.91;10448049;28;20147;-72
2024/03/15 11:48:46;;;;;;;0.08;0.08;;;;;;;-145.06;100.00;51556.03;10449654;28;20032;-73
2024/03/15 11:53:46;;;;;;;0.10;0.10;;;;;;;-145.06;100.00;51541.88;10446120;28;20552;-72
2024/03/15 11:58:46;;;;;;;0.00;0.00;;;;;;;-145.06;100.00;51608.66;10447201;28;20091;-69
2024/03/15 12:03:47;;;;;;;0.00;0.00;;;;;;;-145.06;100.00;51606.66;10447548;28;20021;-69
2024/03/15 12:08:47;;;;;;;0.00;0.00;;;;;;;-145.06;100.00;51637.00;10446980;28;20255;-70
2024/03/15 12:13:53;;;;;;;0.00;0.00;;;;;;;-145.06;100.00;51699.75;10444063;28;20071;-69
2024/03/15 12:18:54;;;;;;;0.00;0.00;;;;;;;-145.06;100.00;51703.78;10446315;28;20032;-70
2024/03/15 12:23:54;;;;;;;0.00;0.00;;;;;;;-145.06;100.00;51722.00;10445324;28;20021;-70
2024/03/15 12:28:54;;;;;;;0.00;0.00;;;;;;;-145.06;100.00;51794.88;10445873;28;20275;-70
2024/03/15 12:33:55;;;;;;;0.00;0.00;;;;;;;-145.06;100.00;51794.88;10446200;28;20263;-70
2024/03/15 12:38:55;;;;;;;0.00;0.00;;;;;;;-145.06;100.00;51831.31;10447368;28;20035;-70
2024/03/15 12:43:56;;;;;;;0.00;0.00;;;;;;;-145.06;100.00;51857.63;10445517;28;20036;-70
2024/03/15 12:48:58;;;;;;;0.10;0.10;;;;;;;-145.06;100.00;51873.81;10447811;28;20051;-70
2024/03/15 12:53:58;;;;;;;0.10;0.10;;;;;;;-145.06;100.00;51863.69;10452700;28;20025;-70
2024/03/15 12:58:58;;;;;;;0.00;0.00;;;;;;;-145.06;100.00;51825.25;10450796;28;20075;-70
2024/03/15 13:03:59;;;;;;;0.10;0.10;;;;;;;-145.06;100.00;51813.09;10453052;28;20025;-70
2024/03/15 13:09:00;;;;;;;0.10;0.10;;;;;;;-145.06;100.00;51788.81;10453112;28;20462;-70
2024/03/15 13:14:00;;;;;;;0.10;0.10;;;;;;;-145.06;100.00;51790.84;10452784;28;20021;-70
2024/03/15 13:19:00;;;;;;;0.10;0.10;;;;;;;-145.06;100.00;51809.03;10452331;28;20089;-71
2024/03/15 13:24:03;;;;;;;0.00;0.00;;;;;;;-145.06;100.00;51879.88;10452252;28;20032;-71
2024/03/15 13:29:06;;;;;;;0.10;0.10;;;;;;;-145.06;100.00;51863.69;10448851;28;20378;-70
2024/03/15 13:34:07;;;;;;;0.00;0.00;;;;;;;-145.06;100.00;51786.78;10451840;28;20074;-70
2024/03/15 13:39:20;;;;;;;0.00;0.00;;;;;;;-145.06;100.00;51726.06;10452863;28;20466;-71
2024/03/15 13:44:23;;;;;;;0.00;0.00;;;;;;;-145.06;100.00;51705.81;10452336;28;20033;-71
2024/03/15 13:49:24;;;;;;;0.00;0.00;;;;;;;-145.06;100.00;51711.91;10452668;28;20021;-71
2024/03/15 13:54:25;;;;;;;0.00;0.00;;;;;;;-145.06;100.00;51722.00;10451883;28;20021;-70
2024/03/15 13:59:28;;;;;;;0.00;0.00;;;;;;;-145.06;100.00;51768.56;10450603;28;20532;-70
2024/03/15 14:04:28;;;;;;;0.10;0.10;;;;;;;-145.06;100.00;51802.97;10450707;28;20428;-70
2024/03/15 14:09:29;;;;;;;0.00;0.00;;;;;;;-145.06;100.00;51831.31;10451611;28;20017;-69
2024/03/15 14:14:29;;;;;;;0.10;0.10;;;;;;;-145.06;100.00;51845.47;10450695;28;20012;-68
2024/03/15 14:19:30;;;;;;;0.00;0.00;;;;;;;-145.06;100.00;51867.75;10450342;28;20390;-68
2024/03/15 14:24:31;;;;;;;0.10;0.10;;;;;;;-145.06;100.00;51879.88;10451406;28;20021;-68
2024/03/15 14:29:31;;;;;;;0.00;0.00;;;;;;;-145.06;100.00;51888.00;10450397;28;20019;-67
2024/03/15 14:34:32;;;;;;;0.10;0.10;;;;;;;-145.06;100.00;51867.75;10448503;28;20493;-68
2024/03/15 14:39:32;;;;;;;0.00;0.00;;;;;;;-145.06;100.00;51802.97;10449150;28;20021;-68
2024/03/15 14:44:32;;;;;;;0.00;0.00;;;;;;;-145.06;100.00;51738.22;10450057;28;20070;-68
2024/03/15 14:49:33;;;;;;;0.00;0.00;;;;;;;-145.06;100.00;51730.09;10449330;28;20036;-68
2024/03/15 14:54:33;;;;;;;0.10;0.10;;;;;;;-145.06;100.00;51805.00;10450004;28;20025;-68
2024/03/15 14:59:34;;;;;;;0.00;0.00;;;;;;;-145.06;100.00;51819.16;10447963;28;20021;-69
2024/03/15 15:04:35;;;;;;;0.10;0.10;;;;;;;-145.06;100.00;51833.34;10447190;28;20036;-68
2024/03/15 15:09:35;;;;;;;0.00;0.00;;;;;;;-145.06;100.00;51815.13;10447831;28;20028;-69
2024/03/15 15:14:38;;;;;;;0.10;0.10;;;;;;;-145.06;100.00;51863.69;10447975;28;20383;-69
2024/03/15 15:19:39;;;;;;;0.00;0.00;;;;;;;-145.06;100.00;51904.19;10447516;28;20059;-69
2024/03/15 15:24:44;;;;;;;0.10;0.10;;;;;;;-145.06;100.00;51881.91;10448671;28;20024;-68
2024/03/15 15:29:44;;;;;;;0.10;0.10;;;;;;;-145.06;100.00;51912.28;10447819;28;20097;-69
2024/03/15 15:34:45;;;;;;;0.10;0.10;;;;;;;-145.06;100.00;51932.53;10448042;28;20527;-69
2024/03/15 15:39:45;;;;;;;0.10;0.10;;;;;;;-145.06;100.00;51958.84;10445132;28;20377;-69
2024/03/15 15:44:45;;;;;;;0.00;0.00;;;;;;;-145.06;100.00;51948.72;10448545;28;20036;-69
2024/03/15 15:49:47;;;;;;;0.10;0.10;;;;;;;-145.06;100.00;51946.69;10447198;28;20017;-69
2024/03/15 15:54:48;;;;;;;0.10;0.10;;;;;;;-145.06;100.00;51944.66;10447842;28;20104;-69
2024/03/15 15:59:49;;;;;;;0.10;0.10;;;;;;;-145.06;100.00;51894.06;10448270;28;20048;-69
2024/03/15 16:04:49;;;;;;;0.10;0.10;;;;;;;-145.06;100.00;51906.22;10446957;28;20017;-69
2024/03/15 16:09:49;;;;;;;0.00;0.00;;;;;;;-145.06;100.00;51898.09;10443041;28;20020;-69
2024/03/15 16:14:49;;;;;;;0.00;0.00;;;;;;;-145.06;100.00;51928.47;10445995;28;20111;-69
2024/03/15 16:19:50;;;;;;;0.10;0.10;;;;;;;-145.06;100.00;51952.75;10445754;28;20044;-69
2024/03/15 16:24:51;;;;;;;0.00;0.00;;;;;;;-145.06;100.00;51948.72;10447021;28;20474;-69
2024/03/15 16:29:52;;;;;;;0.10;0.10;;;;;;;-145.06;100.00;51944.66;10454775;28;20017;-69
2024/03/15 16:34:52;;;;;;;0.00;0.00;;;;;;;-145.06;100.00;51968.94;10455773;28;20429;-69
2024/03/15 16:39:53;;;;;;;0.10;0.10;;;;;;;-145.06;100.00;51973.00;10455884;28;20488;-69
2024/03/15 16:44:54;;;;;;;0.00;0.00;;;;;;;-145.06;100.00;51964.91;10454478;28;20448;-69
2024/03/15 16:49:54;;;;;;;0.00;0.00;;;;;;;-145.06;100.00;51981.09;10455083;28;20016;-69
2024/03/15 16:54:55;;;;;;;0.10;0.10;;;;;;;-145.06;100.00;52011.47;10454649;28;20040;-69
2024/03/15 16:59:55;;;;;;;0.03;0.03;;;;;;;-145.06;100.00;52033.72;10454465;28;20029;-69
2024/03/15 17:04:55;;;;;;;0.10;0.10;;;;;;;-145.06;100.00;52047.91;10454929;28;20032;-69
2024/03/15 17:09:56;;;;;;;0.10;0.10;;;;;;;-145.06;100.00;52078.25;10454586;28;20398;-70
2024/03/15 17:14:56;;;;;;;0.10;0.10;;;;;;;-145.06;100.00;52047.91;10454192;28;20021;-69
2024/03/15 17:19:58;;;;;;;0.00;0.00;;;;;;;-145.06;100.00;52066.13;10454050;28;20032;-70
2024/03/15 17:24:58;;;;;;;0.10;0.10;;;;;;;-145.06;100.00;52029.69;10454228;28;20281;-69
2024/03/15 17:29:59;;;;;;;0.10;0.10;;;;;;;-145.06;100.00;52011.47;10454154;28;20356;-69
2024/03/15 17:35:00;;;;;;;0.10;0.10;;;;;;;-145.06;100.00;52027.66;10452570;28;20021;-69
2024/03/15 17:40:00;;;;;;;0.10;0.10;;;;;;;-145.06;100.00;52049.91;10451761;28;20505;-68
2024/03/15 17:45:04;;;;;;;0.10;0.10;;;;;;;-145.06;100.00;52029.69;10453566;28;20383;-68
2024/03/15 17:50:06;;;;;;;0.10;0.10;;;;;;;-145.06;100.00;52047.91;10452705;28;20078;-68
2024/03/15 17:55:07;;;;;;;0.10;0.10;;;;;;;-145.06;100.00;52029.69;10453413;28;20033;-68
2024/03/15 18:00:12;;;;;;;0.10;0.10;;;;;;;-145.06;100.00;52001.34;10450739;28;20120;-68
2024/03/15 18:05:13;;;;;;;0.10;0.10;;;;;;;-145.06;100.00;52060.03;10452859;28;20371;-68
2024/03/15 18:10:13;;;;;;;0.00;0.00;;;;;;;-145.06;100.00;52037.78;10452338;28;20099;-68
2024/03/15 18:15:13;;;;;;;0.10;0.10;;;;;;;-145.06;100.00;52029.69;10452046;28;20078;-68
2024/03/15 18:20:13;;;;;;;0.10;0.10;;;;;;;-145.06;100.00;52027.66;10451571;28;20028;-68
2024/03/15 18:25:16;;;;;;;0.10;0.10;;;;;;;-145.06;100.00;51989.19;10451433;28;20267;-68
2024/03/15 18:30:16;;;;;;;0.10;0.10;;;;;;;-145.06;100.00;52001.34;10452218;28;20025;-68
2024/03/15 18:35:16;;;;;;;0.00;0.00;;;;;;;-145.06;100.00;52009.44;10451662;28;20016;-68
2024/03/15 18:40:17;;;;;;;0.00;0.00;;;;;;;-145.06;100.00;52017.53;10450572;28;20379;-69
2024/03/15 18:45:17;;;;;;;0.00;0.00;;;;;;;-145.06;100.00;52031.69;10449897;28;20028;-68
2024/03/15 18:50:17;;;;;;;0.10;0.10;;;;;;;-145.06;100.00;52015.50;10450361;28;20024;-68
2024/03/15 18:55:18;;;;;;;0.00;0.00;;;;;;;-145.06;100.00;51960.84;10449715;28;20033;-68
2024/03/15 19:00:21;;;;;;;0.10;0.10;;;;;;;-145.06;100.00;51970.97;10450232;28;20396;-69
2024/03/15 19:05:22;;;;;;;0.00;0.00;;;;;;;-145.06;100.00;51977.06;10450047;28;20567;-69
2024/03/15 19:10:23;;;;;;;0.00;0.00;;;;;;;-145.06;100.00;51993.25;10449019;28;20086;-69
2024/03/15 19:15:27;;;;;;;0.00;0.00;;;;;;;-145.06;100.00;51924.41;10448611;28;20029;-69
2024/03/15 19:20:30;;;;;;;0.10;0.10;;;;;;;-145.06;100.00;51940.63;10447150;28;20075;-69
2024/03/15 19:25:30;;;;;;;0.00;0.00;;;;;;;-145.06;100.00;51938.59;10447771;28;20024;-69
2024/03/15 19:30:31;;;;;;;0.00;0.00;;;;;;;-145.06;100.00;51922.41;10448514;28;20013;-69
2024/03/15 19:35:31;;;;;;;0.10;0.10;;;;;;;-145.06;100.00;51948.72;10448800;28;20354;-68
2024/03/15 19:40:31;;;;;;;0.10;0.10;;;;;;;-145.06;100.00;51948.72;10448447;28;20044;-69
2024/03/15 19:45:31;;;;;;;0.10;0.10;;;;;;;-145.06;100.00;51968.94;10449524;28;20024;-68
2024/03/15 19:50:32;;;;;;;0.10;0.10;;;;;;;-145.06;100.00;51973.00;10448725;28;20095;-68
2024/03/15 19:55:37;;;;;;;0.10;0.10;;;;;;;-145.06;100.00;52003.38;10448596;28;20394;-68
2024/03/15 20:00:38;;;;;;;0.08;0.08;;;;;;;-145.06;100.00;51997.28;10451763;28;20057;-68
2024/03/15 20:05:38;;;;;;;0.00;0.00;;;;;;;-145.06;100.00;52019.56;10457925;28;20055;-69
2024/03/15 20:10:38;;;;;;;0.00;0.00;;;;;;;-145.06;100.00;52011.47;10457707;28;20017;-68
2024/03/15 20:15:42;;;;;;;0.10;0.10;;;;;;;-145.06;100.00;52031.69;10456873;28;20017;-68
2024/03/15 20:20:46;;;;;;;0.00;0.00;;;;;;;-145.06;100.00;52019.56;10455828;28;20402;-68
2024/03/15 20:25:53;;;;;;;0.10;0.10;;;;;;;-145.06;100.00;52025.63;10456444;28;20379;-68
2024/03/15 20:30:57;;;;;;;0.10;0.10;;;;;;;-145.06;100.00;52043.84;10456409;28;20013;-68
2024/03/15 20:35:57;;;;;;;0.10;0.10;;;;;;;-145.06;100.00;52009.44;10455081;28;20577;-68
2024/03/15 20:40:57;;;;;;;0.00;0.00;;;;;;;-145.06;100.00;51997.28;10456017;28;20103;-68
2024/03/15 20:45:58;;;;;;;0.00;0.00;;;;;;;-145.06;100.00;52003.38;10456222;28;20029;-68
2024/03/15 20:50:59;;;;;;;0.03;0.03;;;;;;;-145.06;100.00;52060.03;10455532;28;20079;-68
2024/03/15 20:56:00;;;;;;;0.10;0.10;;;;;;;-145.06;100.00;52025.63;10455919;28;20039;-68
2024/03/15 21:01:00;;;;;;;0.10;0.10;;;;;;;-145.06;100.00;52060.03;10455544;28;20028;-68
2024/03/15 21:06:01;;;;;;;0.10;0.10;;;;;;;-145.06;100.00;52074.22;10453810;28;20683;-68
2024/03/15 21:11:01;;;;;;;0.10;0.10;;;;;;;-145.06;100.00;52098.50;10454992;28;20017;-68
2024/03/15 21:16:03;;;;;;;0.10;0.10;;;;;;;-145.06;100.00;52122.78;10454690;28;20518;-68
2024/03/15 21:21:04;;;;;;;0.00;0.00;;;;;;;-145.06;100.00;52143.03;10454538;28;20057;-69
2024/03/15 21:26:04;;;;;;;0.10;0.10;;;;;;;-145.06;100.00;52155.19;10453416;28;20383;-68
2024/03/15 21:31:05;;;;;;;0.00;0.00;;;;;;;-145.06;100.00;52161.25;10454162;28;20025;-69
2024/03/15 21:36:08;;;;;;;0.00;0.00;;;;;;;-145.06;100.00;52167.31;10454578;28;20017;-68
2024/03/15 21:41:09;;;;;;;0.10;0.10;;;;;;;-145.06;100.00;52183.53;10453494;28;20493;-68
2024/03/15 21:46:11;;;;;;;0.00;0.00;;;;;;;-145.06;100.00;52185.53;10454137;28;20032;-68
2024/03/15 21:51:12;;;;;;;0.10;0.10;;;;;;;-145.06;100.00;52224.00;10454116;28;20063;-68
2024/03/15 21:56:13;;;;;;;0.10;0.10;;;;;;;-145.06;100.00;52219.97;10453254;28;20021;-68
2024/03/15 22:01:15;;;;;;;0.08;0.08;;;;;;;-145.06;100.00;52274.63;10452897;28;20025;-68
2024/03/15 22:06:15;;;;;;;0.10;0.10;;;;;;;-145.06;100.00;52248.31;10452959;28;20024;-68
2024/03/15 22:11:15;;;;;;;0.10;0.10;;;;;;;-145.06;100.00;52307.00;10452866;28;20020;-69
2024/03/15 22:16:16;;;;;;;0.00;0.00;;;;;;;-145.06;100.00;52268.53;10451392;28;20036;-69
2024/03/15 22:21:16;;;;;;;0.10;0.10;;;;;;;-145.06;100.00;52268.53;10452428;28;20043;-69
2024/03/15 22:26:16;;;;;;;0.10;0.10;;;;;;;-145.06;100.00;52284.75;10451633;28;20029;-69
2024/03/15 22:31:17;;;;;;;0.00;0.00;;;;;;;-145.06;100.00;52266.53;10451763;28;20028;-69